Flugplatz Trento Mattarello (LIDT)

Hier findest Du alle Informationen zum Flugplatz Trento Mattarello (LIDT).

Informationen für Piloten zum Flugplatz Trento Mattarello

Hier findest Du alle relevanten Informationen, die Du als Pilot benötigst, um Trento Mattarello anzufliegen.

Flugplatz: Trento Mattarello ICAO-Code: LIDT
Frequenz Turm: 119,65 Mhz GAFOR Gebiet: -
Frequenz Ground: 119,65 Mhz Mogas: ja
Platzrunde: W 1200 ft Landegebühr: -
Platzhöhe: Sunrise: 03:23 Uhr UTC
Pisten: 18/36 - 980 m x 30 m, ASPH Sunset: 19:12 Uhr UTC

Mitglieder, die in Trento Mattarello fliegen

Flugwetter am Flugplatz Trento Mattarello

Die METAR Information stammen aus EDNY (220.42 km entfernt).

METAR Code:
2024/06/17 15:20
EDNY 171520Z 23006KT 170V280 9999 FEW040 SCT048 22/15 Q1016

Flugschulen am Flugplatz Trento Mattarello

Am Flugplatz Trento Mattarello gibt es leider keine Flugschule.

Benachbarte Flugplätze und Flugschulen

Es gibt 2 weitere Flugplätze in einem Umkreis von 50 km um den Flugplatz Trento Mattarello.

Flugplatz Termon UL Platz 28.67 km
Flugplatz Vervo UL Platz 32.13 km
Jetzt anmelden

Passwort vergessen

Umfrage Archiv

Wie häufig haltet Ihr die Halbkreisflugregel ein?

Eher häufig!
36 %
Immer!
30.7 %
Hin und wieder!
16.7 %
Nie!
9.5 %
Eher selten!
7.2 %
Stimmen: 264 | Diskussion
Anzeige: Roland Aircraft
Statistik Alle Mitglieder

Aktuell sind 26 Besucher online, davon 2 Mitglieder und 24 Gäste.


Mitglieder online:
Sev11  Chris_EDNC 

Anzeige: EasyVFR